Terminal Aerodrome Forecast
Issued by NWS North Platte, NE

Home | Current Version | Previous Version | Graphics & Text | Print | Product List | Glossary On
Versions: 1 2 3 4 5 6 7 8 9 10 11 12 13 14 15
000
FTUS43 KLBF 242320
TAFVTN
TAF
KVTN 242320Z 2500/2524 34008KT P6SM SCT120 BKN200
     FM250500 33006KT P6SM BKN250
     FM251000 33006KT P6SM BKN100
     FM251800 35009KT P6SM BKN120=

USA.gov is the U.S. government's official web portal to all federal, state and local government web resources and services.